Beverly Manor, Illinois
Current Conditions -  °F | °C
As of 3:54 PM on Friday 28 Nov 2014 (Local Time) from KPIA Reporting Station
Clear Clear  
Wind Chill:   Ceiling: Unl
Heat Index:   Visibility: 8mi
Dew Point: -1°   Wind: 13mph
Humidity: 70%   Direction: 160°SSE
Pressure: 29.95"   Gusts: NA
Location:  40.703°N, 89.4173°W
Report Text: KPIA 282154Z 16011KT 8SM CLR 04/M01 A2995 RMK AO2 SLP149 T00391011
Loading
Personal Weather Stations






























Interactive Weather Map New forecast layout! Learn more

10-Day Weather Forecast

Advertisements
Track Severe Weather on mobile